Time;durP1;ratioP1;P1;durP2;ratioP2;P2;SDS_P1;SDS_P2;PMS_P1;PMS_P2;Temp;Humidity;BMP_temperature;BMP_pressure;BME280_temperature;BME280_humidity;BME280_pressure;Samples;Min_cycle;Max_cycle;Signal;HPM_P1;HPM_P2
2024/03/19 00:00:38;;;;;;;5.10;3.90;;;;;;;5.16;83.80;99114.75;79529;1302;3011630;-61
2024/03/19 00:03:07;;;;;;;4.40;3.00;;;;;;;5.07;84.17;99115.64;78857;1301;3051107;-61
2024/03/19 00:05:33;;;;;;;4.70;3.30;;;;;;;5.62;83.56;99109.38;79434;1301;3013047;-61
2024/03/19 00:08:00;;;;;;;4.30;3.00;;;;;;;6.18;81.76;99106.62;79248;1300;3011915;-60
2024/03/19 00:10:28;;;;;;;8.00;4.30;;;;;;;6.18;80.61;99108.02;78104;1295;3025554;-59
2024/03/19 00:12:55;;;;;;;5.60;3.90;;;;;;;5.85;81.35;99109.55;79429;1295;3013763;-65
2024/03/19 00:15:21;;;;;;;7.80;6.20;;;;;;;5.60;82.43;99110.67;79452;1301;3014011;-61
2024/03/19 00:17:52;;;;;;;13.00;9.90;;;;;;;5.40;82.93;99112.98;78269;1294;3028289;-62
2024/03/19 00:20:19;;;;;;;18.20;12.10;;;;;;;5.23;83.87;99111.66;79531;1294;3013117;-62
2024/03/19 00:22:48;;;;;;;16.00;12.40;;;;;;;5.13;84.90;99107.41;78826;1295;3012277;-61
2024/03/19 00:25:15;;;;;;;15.10;11.20;;;;;;;5.02;85.50;99109.98;79362;1295;3019508;-62
2024/03/19 00:27:43;;;;;;;12.00;6.40;;;;;;;5.05;85.12;99110.89;79447;1299;3011633;-60
2024/03/19 00:30:11;;;;;;;8.20;6.00;;;;;;;5.42;84.28;99113.59;78143;1301;3049960;-61
2024/03/19 00:32:38;;;;;;;7.90;6.40;;;;;;;5.91;83.18;99112.08;79469;1298;3013142;-62
2024/03/19 00:35:09;;;;;;;8.40;6.20;;;;;;;6.14;82.53;99111.14;79575;1298;3013100;-62
2024/03/19 00:37:37;;;;;;;12.30;8.30;;;;;;;6.03;81.71;99112.71;78062;1295;3050905;-60
2024/03/19 00:40:04;;;;;;;14.00;10.40;;;;;;;5.74;81.81;99111.41;79388;1296;3013802;-62
2024/03/19 00:42:34;;;;;;;15.80;12.70;;;;;;;5.53;82.98;99119.70;79269;1295;3011662;-60
2024/03/19 00:45:03;;;;;;;7.10;5.60;;;;;;;5.58;82.58;99129.04;78138;1300;3049174;-60
2024/03/19 00:47:30;;;;;;;9.20;5.40;;;;;;;5.32;82.70;99125.32;79502;1300;3013008;-64
2024/03/19 00:49:57;;;;;;;7.90;5.30;;;;;;;5.19;83.64;99120.36;79300;1296;3011416;-63
2024/03/19 00:52:26;;;;;;;6.20;4.60;;;;;;;5.03;85.16;99109.95;78161;1300;3052420;-62
2024/03/19 00:54:52;;;;;;;6.40;3.70;;;;;;;5.45;85.17;99106.33;79339;1295;3015949;-63
2024/03/19 00:57:21;;;;;;;5.70;3.60;;;;;;;5.95;83.27;99104.23;79370;1295;3013598;-63
2024/03/19 00:59:49;;;;;;;8.30;4.30;;;;;;;6.18;82.70;99102.98;78051;1300;3049463;-60
2024/03/19 01:02:16;;;;;;;7.80;4.80;;;;;;;6.01;82.76;99103.61;79324;1298;3014198;-61
2024/03/19 01:04:43;;;;;;;7.00;5.20;;;;;;;5.84;83.17;99095.31;79483;1300;3011505;-61
2024/03/19 01:07:11;;;;;;;5.60;4.30;;;;;;;5.71;84.00;99091.92;78150;1301;3052697;-59
2024/03/19 01:09:39;;;;;;;6.30;4.50;;;;;;;5.62;83.81;99095.13;79241;1301;3013339;-59
2024/03/19 01:12:06;;;;;;;6.90;4.90;;;;;;;5.51;84.76;99099.32;79350;1295;3013047;-60
2024/03/19 01:14:35;;;;;;;6.20;4.60;;;;;;;5.29;85.59;99105.84;78124;1300;3050445;-62
2024/03/19 01:17:03;;;;;;;6.60;5.00;;;;;;;5.18;85.14;99107.70;79405;1297;3014760;-60
2024/03/19 01:19:30;;;;;;;5.20;3.40;;;;;;;5.11;85.93;99113.57;79640;1300;3012806;-60
2024/03/19 01:21:58;;;;;;;6.00;3.30;;;;;;;5.70;83.59;99115.12;78273;1295;3052424;-59
2024/03/19 01:24:24;;;;;;;7.30;4.40;;;;;;;6.08;80.93;99118.90;79407;1295;3013602;-59
2024/03/19 01:26:51;;;;;;;6.50;4.60;;;;;;;6.10;80.82;99116.59;79261;1296;3013009;-61
2024/03/19 01:29:19;;;;;;;7.80;5.70;;;;;;;6.12;81.32;99109.36;78160;1300;3028612;-62
2024/03/19 01:31:45;;;;;;;8.00;5.70;;;;;;;6.01;81.44;99110.02;79312;1300;3013619;-59
2024/03/19 01:34:12;;;;;;;7.20;5.40;;;;;;;5.76;81.64;99104.93;79464;1301;3011855;-61
2024/03/19 01:36:40;;;;;;;6.70;5.20;;;;;;;5.45;82.29;99104.80;78087;1301;3025408;-63
2024/03/19 01:39:09;;;;;;;10.00;5.50;;;;;;;5.42;83.01;99104.20;79323;1295;3013462;-60
2024/03/19 01:41:39;;;;;;;6.70;5.70;;;;;;;5.37;83.32;99111.89;78815;1295;3012095;-62
2024/03/19 01:44:07;;;;;;;7.80;5.20;;;;;;;5.21;83.87;99115.41;79281;1296;3012682;-60
2024/03/19 01:46:33;;;;;;;6.30;4.30;;;;;;;5.12;84.73;99114.73;79241;1296;3013538;-60
2024/03/19 01:49:02;;;;;;;5.90;4.30;;;;;;;5.53;84.74;99123.50;78166;1296;3051629;-60
2024/03/19 01:51:29;;;;;;;5.70;4.20;;;;;;;5.95;82.47;99124.02;79428;1301;3012603;-60
2024/03/19 01:53:56;;;;;;;7.00;5.00;;;;;;;6.14;81.69;99123.48;79346;1298;3013410;-61
2024/03/19 01:56:24;;;;;;;6.50;5.00;;;;;;;6.23;81.69;99115.77;78117;1300;3049235;-63
2024/03/19 01:58:51;;;;;;;7.30;5.10;;;;;;;6.07;80.93;99113.23;79296;1295;3013285;-61
2024/03/19 02:01:17;;;;;;;8.00;5.60;;;;;;;5.92;81.60;99108.71;79361;1300;3013994;-60
2024/03/19 02:03:46;;;;;;;7.40;6.30;;;;;;;5.83;82.10;99117.79;78166;1298;3028813;-60
2024/03/19 02:06:13;;;;;;;10.20;6.90;;;;;;;5.68;82.11;99120.41;79452;1295;3012842;-62
2024/03/19 02:09:16;;;;;;;10.40;6.90;;;;;;;5.52;83.24;99122.54;79367;1301;3011569;-60
2024/03/19 02:11:44;;;;;;;8.30;6.20;;;;;;;5.41;83.84;99118.33;78005;1300;3049043;-61
2024/03/19 02:14:12;;;;;;;8.20;6.80;;;;;;;5.40;83.84;99120.62;79316;1296;3013310;-61
2024/03/19 02:16:41;;;;;;;5.90;4.10;;;;;;;5.31;83.54;99126.75;78679;1300;3011639;-61
2024/03/19 02:19:08;;;;;;;6.20;4.40;;;;;;;5.90;82.40;99125.11;79537;1301;3014031;-62
2024/03/19 02:21:35;;;;;;;7.20;5.30;;;;;;;6.49;80.15;99127.02;79393;1297;3011955;-61
2024/03/19 02:24:03;;;;;;;7.50;5.30;;;;;;;6.59;79.16;99130.20;78042;1301;3026784;-62
2024/03/19 02:26:31;;;;;;;8.50;6.00;;;;;;;6.36;79.26;99132.02;79260;1296;3013798;-58
2024/03/19 02:28:59;;;;;;;10.90;8.10;;;;;;;6.31;79.79;99132.97;79350;1295;3011492;-59
2024/03/19 02:31:27;;;;;;;14.90;10.40;;;;;;;6.14;80.01;99131.48;78096;1301;3050143;-63
2024/03/19 02:33:57;;;;;;;15.50;10.90;;;;;;;5.95;80.06;99132.04;79478;1298;3013580;-65
2024/03/19 02:36:25;;;;;;;16.10;10.60;;;;;;;5.70;81.00;99129.89;78138;1299;3069508;-60
2024/03/19 02:38:52;;;;;;;15.60;10.70;;;;;;;5.56;82.05;99129.80;79381;1295;3013081;-63
2024/03/19 02:41:19;;;;;;;14.50;8.70;;;;;;;5.51;82.26;99127.59;79288;1296;3011644;-61
2024/03/19 02:43:47;;;;;;;13.00;9.50;;;;;;;5.49;82.32;99136.05;78105;1296;3052808;-59
2024/03/19 02:46:13;;;;;;;13.10;9.20;;;;;;;5.40;82.23;99139.38;79419;1295;3018428;-61
2024/03/19 02:48:40;;;;;;;10.10;6.80;;;;;;;5.34;82.94;99142.96;79316;1300;3013279;-62
2024/03/19 02:51:08;;;;;;;12.20;8.60;;;;;;;5.83;82.88;99138.81;77991;1298;3028817;-59
2024/03/19 02:53:35;;;;;;;8.60;5.50;;;;;;;6.39;80.61;99139.01;79499;1300;3013827;-59
2024/03/19 02:56:01;;;;;;;6.40;4.70;;;;;;;6.62;79.58;99139.46;79406;1298;3011941;-61
2024/03/19 02:58:29;;;;;;;5.20;3.60;;;;;;;6.38;77.07;99141.83;78130;1298;3027715;-58
2024/03/19 03:00:56;;;;;;;6.50;4.80;;;;;;;6.16;77.13;99141.67;79393;1298;3013671;-61
2024/03/19 03:03:22;;;;;;;6.70;5.40;;;;;;;6.03;78.04;99141.59;79381;1301;3011865;-61
2024/03/19 03:05:50;;;;;;;6.10;4.90;;;;;;;5.90;78.27;99145.48;78344;1298;3028119;-61
2024/03/19 03:08:17;;;;;;;5.20;4.40;;;;;;;5.69;78.47;99150.95;79364;1295;3013149;-62
2024/03/19 03:10:43;;;;;;;6.10;5.30;;;;;;;5.44;78.74;99150.70;79318;1298;3011841;-61
2024/03/19 03:13:11;;;;;;;7.40;5.60;;;;;;;5.26;79.74;99152.70;78344;1295;3028224;-59
2024/03/19 03:15:38;;;;;;;7.70;5.80;;;;;;;5.24;80.11;99160.79;79345;1298;3020441;-60
2024/03/19 03:18:05;;;;;;;7.80;6.00;;;;;;;5.17;80.22;99162.08;79570;1301;3013020;-61
2024/03/19 03:20:33;;;;;;;7.10;5.40;;;;;;;5.02;80.47;99166.04;78141;1296;3028197;-60
2024/03/19 03:22:59;;;;;;;6.80;5.80;;;;;;;4.90;80.85;99167.23;79431;1295;3012968;-59
2024/03/19 03:25:26;;;;;;;6.90;5.00;;;;;;;4.75;81.95;99168.92;79414;1296;3011749;-59
2024/03/19 03:27:54;;;;;;;5.80;4.90;;;;;;;5.09;82.18;99168.88;78144;1298;3028737;-61
2024/03/19 03:30:22;;;;;;;6.40;5.20;;;;;;;5.67;80.93;99169.45;79563;1301;3013243;-61
2024/03/19 03:32:48;;;;;;;7.70;5.80;;;;;;;5.69;80.34;99166.39;79406;1301;3012041;-60
2024/03/19 03:35:18;;;;;;;9.10;5.90;;;;;;;5.54;80.84;99169.52;78217;1299;3068772;-60
2024/03/19 03:37:45;;;;;;;7.30;5.60;;;;;;;5.47;80.52;99171.38;79566;1295;3014534;-60
2024/03/19 03:40:18;;;;;;;10.10;6.80;;;;;;;5.31;80.76;99174.36;79353;1296;3012831;-58
2024/03/19 03:42:47;;;;;;;9.20;7.00;;;;;;;5.02;81.64;99174.55;78198;1295;3053450;-59
2024/03/19 03:45:18;;;;;;;9.00;7.80;;;;;;;4.86;82.64;99174.48;79603;1301;3014555;-60
2024/03/19 03:47:46;;;;;;;10.70;8.20;;;;;;;4.78;82.96;99174.66;78251;1301;3052358;-61
2024/03/19 03:50:14;;;;;;;11.50;8.60;;;;;;;4.72;82.99;99175.45;79371;1300;3012912;-61
2024/03/19 03:52:41;;;;;;;12.50;9.10;;;;;;;4.66;83.44;99176.39;79236;1296;3011805;-59
2024/03/19 03:55:10;;;;;;;9.80;6.80;;;;;;;4.57;83.94;99181.27;78059;1301;3049906;-59
2024/03/19 03:57:37;;;;;;;9.30;6.70;;;;;;;5.14;83.36;99187.73;79465;1299;3013917;-60
2024/03/19 04:00:08;;;;;;;7.60;5.40;;;;;;;5.71;81.38;99193.61;79549;1296;3011611;-59
2024/03/19 04:02:40;;;;;;;11.10;7.70;;;;;;;5.84;80.98;99194.92;78184;1301;3053062;-61
2024/03/19 04:05:07;;;;;;;9.30;6.90;;;;;;;5.80;81.10;99194.58;79302;1297;3013356;-61
2024/03/19 04:07:41;;;;;;;8.90;7.50;;;;;;;5.69;80.86;99196.85;79321;1295;3011729;-62
2024/03/19 04:10:10;;;;;;;11.30;8.50;;;;;;;5.47;81.33;99199.54;78117;1301;3048978;-60
2024/03/19 04:12:37;;;;;;;13.00;7.60;;;;;;;5.26;81.89;99198.88;79483;1295;3013370;-60
2024/03/19 04:15:06;;;;;;;9.70;7.20;;;;;;;5.20;81.92;99199.82;79316;1301;3012010;-58
2024/03/19 04:17:34;;;;;;;13.20;8.80;;;;;;;5.13;82.08;99204.32;78180;1301;3050171;-61
2024/03/19 04:20:05;;;;;;;11.70;8.40;;;;;;;5.02;82.33;99206.63;79733;1298;3012837;-58
2024/03/19 04:22:35;;;;;;;11.60;8.40;;;;;;;4.99;82.56;99207.45;78141;1301;3056733;-58
2024/03/19 04:25:09;;;;;;;8.00;5.80;;;;;;;4.98;82.69;99211.84;79253;1296;3013251;-63
2024/03/19 04:27:37;;;;;;;8.30;6.30;;;;;;;5.56;81.72;99215.80;77985;1301;3053921;-61
2024/03/19 04:30:05;;;;;;;8.20;6.20;;;;;;;6.09;79.43;99212.25;79221;1301;3015681;-62
2024/03/19 04:32:32;;;;;;;9.20;6.40;;;;;;;6.20;78.81;99210.55;79582;1301;3011603;-65
2024/03/19 04:35:01;;;;;;;9.30;6.80;;;;;;;5.92;78.59;99213.21;78192;1295;3068059;-59
2024/03/19 04:37:27;;;;;;;11.00;7.50;;;;;;;5.57;79.30;99220.30;79383;1295;3014094;-61
2024/03/19 04:39:54;;;;;;;10.80;7.80;;;;;;;5.25;80.36;99221.48;79282;1298;3011899;-63
2024/03/19 04:42:23;;;;;;;13.40;8.50;;;;;;;5.08;81.03;99222.73;78104;1301;3052489;-63
2024/03/19 04:44:49;;;;;;;12.40;8.20;;;;;;;4.95;81.84;99219.79;79315;1301;3013341;-61
2024/03/19 04:47:17;;;;;;;13.00;9.10;;;;;;;4.92;81.83;99225.66;79639;1300;3013055;-62
2024/03/19 04:49:45;;;;;;;15.90;10.50;;;;;;;4.88;82.26;99224.58;78262;1301;3067949;-59
2024/03/19 04:52:12;;;;;;;21.30;13.10;;;;;;;4.93;82.02;99222.84;79468;1295;3013367;-63
2024/03/19 04:54:39;;;;;;;19.10;12.20;;;;;;;4.92;81.79;99225.12;79304;1298;3013662;-60
2024/03/19 04:57:08;;;;;;;15.70;9.60;;;;;;;4.85;81.81;99225.57;78136;1301;3054694;-61
2024/03/19 04:59:34;;;;;;;17.20;8.50;;;;;;;5.24;80.97;99227.10;79277;1297;3013723;-60
2024/03/19 05:02:01;;;;;;;15.60;9.10;;;;;;;5.67;78.68;99229.58;79491;1298;3011686;-61
2024/03/19 05:04:30;;;;;;;22.00;9.50;;;;;;;5.75;78.11;99233.92;78141;1295;3068598;-60
2024/03/19 05:06:57;;;;;;;19.70;10.00;;;;;;;5.55;77.84;99234.45;79445;1295;3012527;-62
2024/03/19 05:09:24;;;;;;;25.30;11.60;;;;;;;5.12;78.12;99230.71;79624;1295;3011545;-60
2024/03/19 05:11:53;;;;;;;17.70;10.80;;;;;;;4.96;79.06;99226.88;78214;1300;3053444;-68
2024/03/19 05:14:20;;;;;;;17.80;11.10;;;;;;;4.94;79.46;99228.34;79940;1304;3013157;-65
2024/03/19 05:16:46;;;;;;;22.80;11.20;;;;;;;4.79;79.20;99230.16;79700;1299;3013141;-66
2024/03/19 05:19:14;;;;;;;25.10;11.80;;;;;;;4.53;80.34;99228.27;78429;1298;3025444;-66
2024/03/19 05:21:41;;;;;;;18.50;11.00;;;;;;;4.61;81.13;99229.16;79451;1296;3012870;-69
2024/03/19 05:24:07;;;;;;;16.70;9.90;;;;;;;4.64;81.26;99231.29;79693;1296;3011571;-65
2024/03/19 05:26:35;;;;;;;19.80;9.40;;;;;;;4.56;80.51;99233.13;78446;1301;3025149;-66
2024/03/19 05:29:02;;;;;;;16.80;10.80;;;;;;;4.40;80.88;99241.58;79621;1298;3018469;-59
2024/03/19 05:31:29;;;;;;;16.00;9.70;;;;;;;4.53;81.49;99240.92;79462;1300;3013406;-61
2024/03/19 05:33:57;;;;;;;14.60;7.30;;;;;;;4.66;81.27;99238.83;78076;1301;3069478;-60
2024/03/19 05:36:24;;;;;;;14.20;7.30;;;;;;;5.19;79.46;99239.09;79478;1295;3018532;-60
2024/03/19 05:38:52;;;;;;;11.50;7.80;;;;;;;5.78;77.47;99243.67;79416;1296;3011871;-59
2024/03/19 05:41:20;;;;;;;11.50;7.30;;;;;;;5.85;76.11;99247.37;78199;1301;3052804;-58
2024/03/19 05:43:48;;;;;;;11.70;8.20;;;;;;;5.72;75.93;99249.36;79428;1309;3012773;-62
2024/03/19 05:46:15;;;;;;;15.70;9.50;;;;;;;5.63;76.50;99247.66;79887;1298;3012301;-62
2024/03/19 05:48:43;;;;;;;15.90;9.70;;;;;;;5.59;76.66;99250.06;78300;1298;3069080;-61
2024/03/19 05:51:11;;;;;;;17.00;10.40;;;;;;;5.48;77.33;99253.70;79872;1300;3013443;-61
2024/03/19 05:53:37;;;;;;;14.50;9.50;;;;;;;5.45;76.84;99265.46;79965;1298;3011915;-59
2024/03/19 05:56:06;;;;;;;13.10;8.80;;;;;;;5.39;77.14;99259.77;78357;1296;3026615;-58
2024/03/19 05:58:33;;;;;;;16.10;10.10;;;;;;;5.47;77.07;99264.34;79652;1301;3013297;-59
2024/03/19 06:01:00;;;;;;;15.60;9.60;;;;;;;5.54;76.78;99268.69;79388;1301;3011902;-60
2024/03/19 06:03:28;;;;;;;20.90;11.50;;;;;;;5.54;76.81;99269.59;78151;1300;3068974;-59
2024/03/19 06:08:52;;;;;;;15.50;9.90;;;;;;;5.62;76.84;99277.73;78210;1302;3049538;-59
2024/03/19 06:11:18;;;;;;;17.30;11.60;;;;;;;5.67;77.09;99277.73;79457;1300;3019185;-58
2024/03/19 06:13:45;;;;;;;18.70;11.50;;;;;;;5.77;77.21;99273.79;79560;1301;3011853;-60
2024/03/19 06:16:12;;;;;;;18.70;10.90;;;;;;;5.73;76.54;99276.41;78289;1301;3028401;-61
2024/03/19 06:18:39;;;;;;;17.60;10.70;;;;;;;5.74;76.45;99275.02;79958;1299;3013686;-60
2024/03/19 06:21:05;;;;;;;14.60;10.10;;;;;;;5.79;76.38;99277.91;79458;1300;3011829;-59
2024/03/19 06:23:33;;;;;;;17.40;11.30;;;;;;;5.75;76.12;99278.94;78362;1299;3028475;-58
2024/03/19 06:26:00;;;;;;;21.20;11.80;;;;;;;5.85;75.75;99280.41;79361;1301;3012758;-60
2024/03/19 06:28:27;;;;;;;22.40;12.70;;;;;;;5.92;75.59;99284.63;79771;1298;3011496;-61
2024/03/19 06:30:55;;;;;;;18.30;11.30;;;;;;;6.00;75.88;99292.83;78360;1308;3026682;-59
2024/03/19 06:33:22;;;;;;;19.90;12.60;;;;;;;6.15;75.23;99297.17;79514;1297;3014009;-60
2024/03/19 06:35:51;;;;;;;18.10;11.70;;;;;;;6.25;75.11;99298.67;79641;1295;3011756;-60
2024/03/19 06:38:19;;;;;;;18.90;11.20;;;;;;;6.26;74.27;99303.30;78392;1308;3049302;-65
2024/03/19 06:40:46;;;;;;;17.90;10.80;;;;;;;6.37;74.00;99305.06;79684;1298;3013057;-60
2024/03/19 06:43:12;;;;;;;18.40;11.40;;;;;;;6.38;73.64;99305.73;79387;1309;3011588;-61
2024/03/19 06:45:40;;;;;;;20.20;11.10;;;;;;;6.25;73.87;99306.64;78323;1299;3026573;-60
2024/03/19 06:48:08;;;;;;;17.00;11.80;;;;;;;6.28;74.26;99307.21;79745;1299;3013218;-59
2024/03/19 06:50:35;;;;;;;18.40;11.80;;;;;;;6.36;74.04;99307.20;79562;1298;3013820;-58
2024/03/19 06:53:03;;;;;;;20.20;11.80;;;;;;;6.43;73.40;99315.78;78254;1298;3050386;-61
2024/03/19 06:55:31;;;;;;;24.30;13.20;;;;;;;6.38;73.49;99314.58;79265;1298;3014535;-61
2024/03/19 06:57:58;;;;;;;22.40;13.90;;;;;;;6.35;73.81;99315.77;79117;1301;3011654;-61
2024/03/19 07:00:26;;;;;;;23.30;15.30;;;;;;;6.34;74.17;99314.77;78065;1301;3051741;-60
2024/03/19 07:02:54;;;;;;;20.80;14.30;;;;;;;6.46;74.35;99319.63;79337;1301;3013364;-64
2024/03/19 07:05:22;;;;;;;22.00;13.80;;;;;;;6.37;74.28;99320.21;79404;1300;3013560;-61
2024/03/19 07:07:54;;;;;;;25.80;15.10;;;;;;;6.29;74.57;99316.73;78015;1301;3049790;-59
2024/03/19 07:10:21;;;;;;;24.80;15.20;;;;;;;6.28;74.73;99318.91;79249;1301;3011674;-61
2024/03/19 07:12:49;;;;;;;28.40;16.20;;;;;;;6.24;75.05;99319.58;78118;1301;3049881;-62
2024/03/19 07:15:17;;;;;;;24.90;14.90;;;;;;;6.23;74.81;99320.17;79310;1300;3013119;-58
2024/03/19 07:17:51;;;;;;;22.80;14.80;;;;;;;6.21;74.43;99319.04;79341;1300;3011950;-61
2024/03/19 07:20:19;;;;;;;24.30;15.50;;;;;;;6.25;73.95;99324.77;78553;1301;3052585;-59
2024/03/19 07:22:47;;;;;;;25.10;16.40;;;;;;;6.32;74.05;99329.48;79915;1298;3018786;-61
2024/03/19 07:25:14;;;;;;;26.10;17.10;;;;;;;6.40;73.83;99328.45;79242;1297;3011690;-62
2024/03/19 07:27:42;;;;;;;28.10;18.20;;;;;;;6.43;73.66;99328.14;78120;1297;3049853;-62
2024/03/19 07:30:11;;;;;;;26.30;16.60;;;;;;;6.42;73.58;99327.13;79569;1301;3013407;-58
2024/03/19 07:32:39;;;;;;;25.90;18.20;;;;;;;6.47;73.64;99325.33;79334;1298;3014123;-59
2024/03/19 07:35:08;;;;;;;28.60;19.00;;;;;;;6.52;73.65;99321.63;78249;1297;3052234;-61
2024/03/19 07:37:36;;;;;;;29.70;19.40;;;;;;;6.70;73.35;99316.94;79422;1298;3013864;-59
2024/03/19 07:40:10;;;;;;;26.10;18.10;;;;;;;6.70;72.88;99318.70;79294;1301;3011328;-58
2024/03/19 07:42:38;;;;;;;29.30;19.10;;;;;;;6.72;72.79;99318.77;78122;1298;3051101;-63
2024/03/19 07:45:06;;;;;;;26.30;18.70;;;;;;;6.73;73.09;99315.61;79235;1301;3012846;-59
2024/03/19 07:47:37;;;;;;;26.40;18.50;;;;;;;6.75;73.08;99321.04;78948;1303;3013254;-62
2024/03/19 07:50:07;;;;;;;25.30;17.20;;;;;;;6.77;73.40;99317.16;79353;1298;3013708;-60
2024/03/19 07:52:36;;;;;;;28.70;18.30;;;;;;;6.81;73.17;99317.64;78258;1301;3056630;-60
2024/03/19 07:55:04;;;;;;;24.90;16.90;;;;;;;6.81;73.38;99315.58;79669;1298;3013669;-63
2024/03/19 07:57:30;;;;;;;23.50;16.50;;;;;;;6.93;72.97;99312.04;79362;1302;3011666;-63
2024/03/19 08:00:09;;;;;;;23.20;15.60;;;;;;;7.00;72.53;99310.12;78267;1300;3051923;-59
2024/03/19 08:02:38;;;;;;;22.40;14.70;;;;;;;7.06;72.33;99307.42;78505;1301;3051371;-59
2024/03/19 08:05:07;;;;;;;21.70;14.80;;;;;;;7.16;72.63;99307.09;79488;1298;3015988;-60
2024/03/19 08:07:36;;;;;;;20.90;15.00;;;;;;;7.25;72.76;99309.81;78982;1295;3013566;-61
2024/03/19 08:10:04;;;;;;;19.70;14.40;;;;;;;7.25;72.45;99312.20;80000;1295;3018498;-62
2024/03/19 08:12:33;;;;;;;25.10;17.30;;;;;;;7.30;72.07;99311.81;79395;1299;3011692;-61
2024/03/19 08:15:04;;;;;;;24.00;15.70;;;;;;;7.31;72.25;99313.14;78606;1308;3050931;-60
2024/03/19 08:17:32;;;;;;;25.60;16.70;;;;;;;7.27;72.34;99309.70;79524;1295;3011639;-60
2024/03/19 08:20:00;;;;;;;23.90;16.20;;;;;;;7.50;72.48;99305.94;78273;1298;3052887;-59
2024/03/19 08:22:27;;;;;;;21.00;14.60;;;;;;;7.52;71.87;99296.40;79760;1295;3013089;-59
2024/03/19 08:24:53;;;;;;;28.40;15.70;;;;;;;7.61;71.66;99297.70;79371;1298;3011353;-60
2024/03/19 08:27:21;;;;;;;24.20;15.60;;;;;;;7.70;71.89;99299.86;79041;1298;3027125;-59
2024/03/19 08:29:48;;;;;;;27.00;15.40;;;;;;;7.81;71.60;99311.00;81587;1294;3011652;-58
2024/03/19 08:32:14;;;;;;;24.60;16.00;;;;;;;7.90;71.15;99303.54;80282;1294;3011984;-60
2024/03/19 08:34:43;;;;;;;24.20;12.90;;;;;;;8.04;70.96;99302.15;78575;1299;3028668;-58
2024/03/19 08:37:11;;;;;;;20.50;12.20;;;;;;;7.98;71.03;99301.75;79437;1295;3013134;-59
2024/03/19 08:39:37;;;;;;;22.20;12.30;;;;;;;7.97;70.55;99300.59;79677;1295;3013177;-57
2024/03/19 08:42:05;;;;;;;23.20;13.80;;;;;;;7.98;70.80;99297.22;78618;1296;3048281;-58
2024/03/19 08:44:32;;;;;;;23.60;14.20;;;;;;;7.91;71.50;99300.34;79622;1295;3018561;-59
2024/03/19 08:46:58;;;;;;;19.70;13.30;;;;;;;7.81;71.77;99298.44;79644;1298;3011644;-59
2024/03/19 08:49:26;;;;;;;19.90;13.00;;;;;;;7.88;71.29;99298.40;78219;1300;3024903;-59
2024/03/19 08:51:53;;;;;;;19.70;12.40;;;;;;;7.73;70.95;99294.83;79528;1294;3013109;-57
2024/03/19 08:54:20;;;;;;;20.10;12.80;;;;;;;7.86;70.63;99291.05;79570;1301;3011648;-58
2024/03/19 08:56:48;;;;;;;19.10;13.20;;;;;;;7.97;70.56;99292.52;78397;1299;3048953;-56
2024/03/19 08:59:15;;;;;;;20.60;12.40;;;;;;;8.10;70.45;99288.04;79457;1295;3013580;-58
2024/03/19 09:01:42;;;;;;;22.40;14.20;;;;;;;8.23;70.50;99286.11;80068;1295;3013545;-58
2024/03/19 09:04:09;;;;;;;22.50;13.20;;;;;;;8.35;70.67;99288.42;78350;1298;3026732;-59
2024/03/19 09:06:36;;;;;;;21.90;14.20;;;;;;;8.38;70.20;99284.77;79525;1301;3013394;-60
2024/03/19 09:09:03;;;;;;;24.90;15.50;;;;;;;8.45;70.09;99284.61;79307;1299;3377732;-60
2024/03/19 09:11:32;;;;;;;23.70;14.50;;;;;;;8.53;70.16;99281.73;78233;1299;3028023;-61
2024/03/19 09:13:59;;;;;;;20.90;13.90;;;;;;;8.59;70.11;99279.83;79631;1295;3013341;-60
2024/03/19 09:16:25;;;;;;;25.60;14.70;;;;;;;8.65;70.03;99277.26;79351;1295;3011922;-60
2024/03/19 09:18:53;;;;;;;21.80;14.70;;;;;;;8.76;70.41;99280.09;78136;1298;3052414;-60
2024/03/19 09:21:20;;;;;;;23.30;14.20;;;;;;;8.88;70.33;99280.67;79682;1295;3013574;-62
2024/03/19 09:23:47;;;;;;;23.30;13.80;;;;;;;9.03;69.98;99282.42;79617;1298;3011720;-62
2024/03/19 09:26:15;;;;;;;23.00;13.40;;;;;;;9.14;69.30;99277.98;78219;1298;3027599;-61
2024/03/19 09:28:41;;;;;;;22.40;12.50;;;;;;;9.22;69.45;99281.20;79381;1301;3013679;-63
2024/03/19 09:31:08;;;;;;;18.50;11.60;;;;;;;9.31;69.74;99285.91;79496;1299;3011820;-58
2024/03/19 09:33:36;;;;;;;23.20;13.30;;;;;;;9.28;68.53;99282.27;78394;1299;3028047;-61
2024/03/19 09:36:03;;;;;;;22.00;13.40;;;;;;;9.35;69.14;99283.39;79562;1299;3013340;-62
2024/03/19 09:38:30;;;;;;;21.40;13.00;;;;;;;9.38;69.32;99283.73;79467;1298;3013146;-61
2024/03/19 09:41:02;;;;;;;20.10;12.90;;;;;;;9.36;68.71;99283.38;78375;1295;3026831;-63
2024/03/19 09:43:32;;;;;;;16.50;11.50;;;;;;;9.24;68.74;99283.34;79638;1295;3013183;-62
2024/03/19 09:46:01;;;;;;;17.90;11.00;;;;;;;9.38;68.71;99282.69;78467;1295;3048676;-61
2024/03/19 09:48:27;;;;;;;16.40;10.10;;;;;;;9.55;68.11;99276.48;79598;1298;3011629;-62
2024/03/19 09:50:54;;;;;;;15.50;9.70;;;;;;;9.65;67.67;99274.98;79408;1300;3011893;-61
2024/03/19 09:53:24;;;;;;;19.80;11.40;;;;;;;9.76;67.28;99276.93;78377;1299;3052321;-61
2024/03/19 09:55:52;;;;;;;18.10;11.60;;;;;;;9.79;68.10;99278.55;79499;1295;3013366;-61
2024/03/19 09:58:22;;;;;;;17.30;10.80;;;;;;;9.79;68.17;99273.14;78960;1295;3011783;-59
2024/03/19 10:00:53;;;;;;;20.60;11.60;;;;;;;9.86;67.87;99268.98;79635;1296;3011816;-62
2024/03/19 10:03:20;;;;;;;19.90;11.10;;;;;;;10.02;67.90;99271.51;78229;1298;3050613;-62
2024/03/19 10:05:47;;;;;;;18.40;11.50;;;;;;;10.18;67.05;99270.04;79545;1298;3013552;-62
2024/03/19 10:08:17;;;;;;;16.10;10.20;;;;;;;10.37;66.25;99271.67;79719;1300;3012091;-61
2024/03/19 10:10:46;;;;;;;14.70;10.10;;;;;;;10.53;65.44;99275.37;78251;1300;3052392;-61
2024/03/19 10:13:13;;;;;;;15.10;10.30;;;;;;;10.39;65.16;99276.11;79597;1295;3013495;-63
2024/03/19 10:15:40;;;;;;;16.60;10.00;;;;;;;10.46;65.79;99275.67;79561;1295;3011636;-63
2024/03/19 10:18:08;;;;;;;12.70;8.40;;;;;;;10.63;64.85;99277.02;78367;1298;3050491;-61
2024/03/19 10:20:39;;;;;;;12.00;8.10;;;;;;;10.60;64.73;99278.83;79519;1301;3012951;-63
2024/03/19 10:23:07;;;;;;;13.80;9.20;;;;;;;10.61;64.43;99279.27;78250;1295;3068565;-59
2024/03/19 10:25:36;;;;;;;18.20;10.90;;;;;;;10.47;64.24;99277.02;79915;1295;3015425;-61
2024/03/19 10:28:06;;;;;;;12.20;8.00;;;;;;;10.36;64.32;99275.41;81995;1294;3011160;-63
2024/03/19 10:30:34;;;;;;;14.30;9.00;;;;;;;10.34;64.40;99273.44;80737;1295;3052757;-61
2024/03/19 10:33:01;;;;;;;13.30;8.30;;;;;;;10.43;64.22;99273.08;82011;1295;3012498;-61
2024/03/19 10:35:29;;;;;;;16.80;10.00;;;;;;;10.45;64.62;99275.91;81944;1298;3011456;-62
2024/03/19 10:37:56;;;;;;;14.10;9.80;;;;;;;10.52;64.52;99273.55;80722;1295;3070004;-61
2024/03/19 10:40:23;;;;;;;14.70;10.70;;;;;;;10.52;64.90;99274.45;80218;1294;3013290;-62
2024/03/19 10:42:50;;;;;;;16.40;9.90;;;;;;;10.48;65.22;99276.23;79501;1295;3013068;-61
2024/03/19 10:45:22;;;;;;;16.00;9.70;;;;;;;10.47;64.98;99275.30;78583;1295;3052766;-60
2024/03/19 10:47:49;;;;;;;17.40;10.90;;;;;;;10.43;64.90;99273.39;79507;1295;3013069;-62
2024/03/19 10:50:19;;;;;;;14.90;10.10;;;;;;;10.38;65.20;99269.88;78272;1294;3026368;-62
2024/03/19 10:53:27;;;;;;;18.90;11.50;;;;;;;10.33;65.52;99272.27;79535;1300;3012849;-60
2024/03/19 10:55:58;;;;;;;15.60;10.70;;;;;;;10.37;65.37;99271.52;78233;1297;3069272;-62
2024/03/19 10:58:25;;;;;;;14.40;9.20;;;;;;;10.39;65.27;99273.16;79280;1297;3011577;-61
2024/03/19 11:00:54;;;;;;;14.10;10.40;;;;;;;10.47;64.83;99271.45;78687;1298;3011658;-62
2024/03/19 11:03:21;;;;;;;12.30;9.20;;;;;;;10.46;64.89;99269.23;79392;1297;3013269;-64
2024/03/19 11:05:51;;;;;;;16.20;9.90;;;;;;;10.47;64.92;99269.28;79168;1296;3011775;-62
2024/03/19 11:08:19;;;;;;;11.10;8.50;;;;;;;10.34;64.92;99267.83;78120;1298;3054207;-62
2024/03/19 11:10:46;;;;;;;10.00;7.10;;;;;;;10.35;63.64;99266.52;79223;1300;3013256;-63
2024/03/19 11:13:25;;;;;;;11.90;8.60;;;;;;;10.34;63.88;99263.65;79372;1300;3011660;-61
2024/03/19 11:15:53;;;;;;;13.00;9.10;;;;;;;10.31;64.55;99268.31;78030;1301;3055510;-60
2024/03/19 11:18:20;;;;;;;14.90;7.90;;;;;;;10.36;65.14;99269.45;79260;1300;3013772;-61
2024/03/19 11:20:51;;;;;;;12.50;8.90;;;;;;;10.33;65.15;99267.68;79279;1298;3011763;-61